createdAt,value
2022-12-20T00:04:54.879Z,22.20
2022-12-20T00:19:58.230Z,24.50
2022-12-20T00:35:01.440Z,20.90
2022-12-20T00:50:05.265Z,21.40
2022-12-20T01:05:08.868Z,21.00
2022-12-20T01:20:13.625Z,22.10
2022-12-20T01:35:16.949Z,22.20
2022-12-20T01:50:20.681Z,21.00
2022-12-20T02:05:24.038Z,21.80
2022-12-20T02:20:41.285Z,22.40
2022-12-20T02:35:44.478Z,23.00
2022-12-20T02:50:52.972Z,29.40
2022-12-20T03:05:57.253Z,24.20
2022-12-20T03:21:00.849Z,26.60
2022-12-20T03:36:04.392Z,26.70
2022-12-20T03:51:07.778Z,25.90
2022-12-20T04:06:11.620Z,26.70
2022-12-20T04:21:16.645Z,26.80
2022-12-20T04:36:22.320Z,26.70
2022-12-20T04:51:28.045Z,28.00
2022-12-20T05:06:31.407Z,26.80
2022-12-20T05:21:53.446Z,28.40
2022-12-20T05:36:56.978Z,29.30
2022-12-20T05:52:03.051Z,25.00
2022-12-20T06:07:06.777Z,23.50
2022-12-20T06:22:10.503Z,27.10
2022-12-20T06:37:26.922Z,27.90
2022-12-20T06:52:30.599Z,27.40
2022-12-20T07:07:40.206Z,32.60
2022-12-20T07:22:48.952Z,28.80
2022-12-20T07:37:52.263Z,26.00
2022-12-20T07:52:56.186Z,26.60
2022-12-20T08:08:00.287Z,27.20
2022-12-20T08:23:04.742Z,26.90
2022-12-20T08:38:08.115Z,27.00
2022-12-20T08:53:11.703Z,24.40
2022-12-20T09:08:16.697Z,27.50
2022-12-20T09:23:20.051Z,25.00
2022-12-20T09:38:23.312Z,22.80
2022-12-20T09:53:48.818Z,28.10
2022-12-20T10:09:02.409Z,26.90
2022-12-20T10:24:30.617Z,35.50
2022-12-20T10:39:47.370Z,26.80
2022-12-20T10:54:50.661Z,22.90
2022-12-20T11:09:59.923Z,26.10
2022-12-20T11:25:24.148Z,26.00
2022-12-20T11:40:35.596Z,37.80
2022-12-20T11:55:43.314Z,27.10
2022-12-20T12:26:02.474Z,33.10
2022-12-20T12:41:34.306Z,28.80
2022-12-20T12:56:49.047Z,41.80
2022-12-20T13:12:00.405Z,35.60
2022-12-20T13:27:23.828Z,32.80
2022-12-20T13:42:39.014Z,59.10
2022-12-20T13:57:45.425Z,43.60
2022-12-20T14:12:53.994Z,35.90
2022-12-20T14:27:58.306Z,30.10
2022-12-20T14:43:15.489Z,32.30
2022-12-20T14:58:31.617Z,34.60
2022-12-20T15:13:39.106Z,47.80
2022-12-20T15:28:42.731Z,37.50
2022-12-20T15:43:46.710Z,33.20
2022-12-20T15:58:52.904Z,44.20
2022-12-20T16:14:00.294Z,41.20
2022-12-20T16:29:04.203Z,29.10
2022-12-20T16:44:13.884Z,35.60
2022-12-20T16:59:20.827Z,34.70
2022-12-20T17:14:24.427Z,35.50
2022-12-20T17:29:28.098Z,41.70
2022-12-20T17:44:32.087Z,33.70
2022-12-20T17:59:35.476Z,37.70
2022-12-20T18:14:39.331Z,38.30
2022-12-20T18:29:42.735Z,36.70
2022-12-20T18:44:47.542Z,38.10
2022-12-20T18:59:51.603Z,35.50
2022-12-20T19:14:55.874Z,47.60
2022-12-20T19:29:59.336Z,39.50
2022-12-20T19:45:03.343Z,37.00
2022-12-20T20:00:08.962Z,30.60
2022-12-20T20:15:14.990Z,30.50
2022-12-20T20:30:18.735Z,29.90
2022-12-20T20:45:22.501Z,29.90
2022-12-20T21:00:26.685Z,27.90
2022-12-20T21:15:30.083Z,30.10
2022-12-20T21:30:33.454Z,27.50
2022-12-20T21:45:36.693Z,28.00
2022-12-20T22:00:39.957Z,28.80
2022-12-20T22:15:43.311Z,28.90
2022-12-20T22:30:46.854Z,31.30
2022-12-20T22:46:00.346Z,27.20
2022-12-20T23:01:06.293Z,27.40
2022-12-20T23:16:12.598Z,27.60
2022-12-20T23:31:15.982Z,28.00
2022-12-20T23:46:20.668Z,27.20
